Portada
METAR-TAF:

METAR-TAF

Aeropuertos :

Aeropuerto Internacional Juan Vicente Gómez

San Antonio del Táchira, Venezuela

latitud: 07-51N, longitud: 072-27W, altitud: 377 m

METAR: falta

Hora: 02:25 (06:25 UTC)

Pronóstico

El informe se hizo hace 2 horas y 25 minutos, a las 04:00 UTC
Pronóstico válido del 12 a las 06 UTC al 13 a las 06 UTC
Viento 4 kt del norte-noroeste
Visibilidad 10 km o más
Nubes dispersas a una altura de 1600 ft
Evolucionando progresivamente
del 12 a las 06 UTC al 12 a las 10 UTC
Viento 2 kt del noroeste
Nubes dispersas a una altura de 1600 ft
Nubes dispersas a una altura de 10000 ft

TAF: SVSA 120400Z 1206/1306 34004KT 9999 SCT016 TX31/19Z TN22/08Z BECMG 1206/1210 31002KT SCT016 SCT100

Observaciones y pronósticos meteorológicos de más de 4000 aeropuertos (mensajes METAR y TAF).

Los puntos amarillos y rojos representan las estaciones disponibles.

Ponga el ratón en el punto deseado para ver el nombre de la estación.

Haga clic para ver las observaciones y los pronósticos meteorológicos.

Para cambiar el mapa : haga clic en los botones verdes con una cruz de color negro para hacer un zoom, en el botón verde con un guión para alejar o en las flechas verdes para mapas adyacentes.


METAR-TAF: